Time;durP1;ratioP1;P1;durP2;ratioP2;P2;SDS_P1;SDS_P2;PMS_P1;PMS_P2;Temp;Humidity;BMP_temperature;BMP_pressure;BME280_temperature;BME280_humidity;BME280_pressure;Samples;Min_cycle;Max_cycle;Signal;HPM_P1;HPM_P2
2022/12/25 00:01:40;;;;;;;62.45;24.65;;;28.30;75.90;;;;;;5148880;27;20023;-54
2022/12/25 00:04:09;;;;;;;51.85;21.60;;;28.30;75.70;;;;;;5148441;27;20084;-55
2022/12/25 00:06:36;;;;;;;46.65;19.52;;;28.30;75.70;;;;;;5148529;27;20024;-55
2022/12/25 00:09:02;;;;;;;54.30;19.58;;;28.30;75.70;;;;;;5148420;27;20316;-55
2022/12/25 00:11:29;;;;;;;49.25;18.23;;;28.20;75.60;;;;;;5148490;27;20030;-56
2022/12/25 00:13:56;;;;;;;42.10;16.77;;;28.20;75.60;;;;;;5148656;27;20039;-57
2022/12/25 00:16:25;;;;;;;39.05;15.88;;;28.20;75.60;;;;;;5148335;27;20021;-58
2022/12/25 00:18:52;;;;;;;44.38;15.18;;;28.20;75.70;;;;;;5148395;27;20257;-56
2022/12/25 00:21:20;;;;;;;39.10;13.13;;;28.20;76.20;;;;;;5148366;27;20078;-57
2022/12/25 00:23:47;;;;;;;31.00;11.98;;;28.20;75.70;;;;;;5148648;27;20038;-57
2022/12/25 00:26:16;;;;;;;29.83;12.38;;;28.10;75.70;;;;;;5148007;27;20027;-56
2022/12/25 00:28:42;;;;;;;32.97;14.32;;;28.10;75.70;;;;;;5148688;27;20031;-56
2022/12/25 00:31:12;;;;;;;26.25;12.02;;;28.10;75.80;;;;;;5148678;27;20205;-56
2022/12/25 00:33:40;;;;;;;30.35;12.20;;;28.10;75.90;;;;;;5148573;27;20051;-56
2022/12/25 00:36:09;;;;;;;30.73;10.80;;;28.10;75.90;;;;;;5148088;27;20015;-57
2022/12/25 00:38:37;;;;;;;28.98;10.27;;;28.10;75.90;;;;;;5148604;27;20034;-56
2022/12/25 00:41:06;;;;;;;22.90;9.35;;;28.00;75.90;;;;;;5148141;27;20043;-59
2022/12/25 00:43:33;;;;;;;20.15;10.65;;;28.10;76.20;;;;;;5148755;27;20031;-58
2022/12/25 00:46:02;;;;;;;30.13;12.23;;;28.00;75.80;;;;;;5147737;27;20015;-56
2022/12/25 00:48:29;;;;;;;25.52;10.85;;;28.00;76.10;;;;;;5148469;27;20030;-55
2022/12/25 00:50:58;;;;;;;27.83;9.27;;;28.00;75.90;;;;;;5147672;27;20083;-56
2022/12/25 00:53:25;;;;;;;27.55;10.15;;;28.00;76.00;;;;;;5148129;27;20055;-56
2022/12/25 00:55:57;;;;;;;25.50;12.38;;;28.00;75.60;;;;;;5147702;27;20090;-62
2022/12/25 00:58:25;;;;;;;20.42;9.75;;;28.00;75.50;;;;;;5147985;27;20027;-63
2022/12/25 01:00:52;;;;;;;28.20;10.88;;;28.00;75.60;;;;;;5147908;27;20046;-56
2022/12/25 01:03:18;;;;;;;26.70;9.98;;;27.90;75.50;;;;;;5147780;27;20023;-56
2022/12/25 01:05:54;;;;;;;23.58;9.45;;;27.90;75.40;;;;;;5147355;27;20023;-57
2022/12/25 01:08:21;;;;;;;21.77;8.77;;;28.00;75.40;;;;;;5147706;27;20301;-57
2022/12/25 01:11:00;;;;;;;25.88;10.65;;;27.90;75.30;;;;;;5129150;27;20027;-56
2022/12/25 01:13:27;;;;;;;24.13;9.50;;;27.90;75.30;;;;;;5148065;27;20042;-55
2022/12/25 01:15:54;;;;;;;17.65;10.65;;;27.90;75.20;;;;;;5147351;27;20095;-55
2022/12/25 01:18:23;;;;;;;21.58;9.05;;;27.90;75.10;;;;;;5147843;27;20027;-57
2022/12/25 01:20:49;;;;;;;34.03;17.17;;;27.90;75.30;;;;;;5147203;27;20083;-56
2022/12/25 01:23:16;;;;;;;41.22;32.17;;;27.90;75.30;;;;;;5147798;27;20027;-56
2022/12/25 01:25:43;;;;;;;36.08;21.75;;;27.80;75.20;;;;;;5146985;27;20035;-56
2022/12/25 01:28:09;;;;;;;31.73;14.65;;;27.90;75.30;;;;;;5147595;27;20072;-56
2022/12/25 01:30:36;;;;;;;31.35;12.90;;;27.80;75.20;;;;;;5147214;27;20031;-56
2022/12/25 01:33:03;;;;;;;18.70;10.20;;;27.80;75.20;;;;;;5147336;27;20087;-57
2022/12/25 01:35:29;;;;;;;18.63;10.10;;;27.80;75.20;;;;;;5147104;27;20076;-56
2022/12/25 01:37:56;;;;;;;25.42;9.10;;;27.80;75.30;;;;;;5147181;27;20073;-56
2022/12/25 01:40:22;;;;;;;17.98;9.45;;;27.80;75.20;;;;;;5147242;27;20078;-55
2022/12/25 01:42:49;;;;;;;25.77;9.68;;;27.80;75.10;;;;;;5147429;27;20039;-56
2022/12/25 01:45:33;;;;;;;21.30;10.10;;;27.80;75.10;;;;;;5147098;27;20019;-56
2022/12/25 01:48:02;;;;;;;15.95;10.35;;;27.80;75.00;;;;;;5146650;27;20067;-56
2022/12/25 01:50:29;;;;;;;22.08;9.65;;;27.80;75.00;;;;;;5146202;27;20090;-55
2022/12/25 01:52:56;;;;;;;18.42;8.98;;;27.80;74.80;;;;;;5128578;27;20038;-56
2022/12/25 01:55:23;;;;;;;28.02;8.88;;;27.80;74.90;;;;;;5146634;27;20019;-53
2022/12/25 01:57:50;;;;;;;23.30;8.45;;;27.80;74.60;;;;;;5147453;27;20063;-56
2022/12/25 02:00:17;;;;;;;20.83;8.65;;;27.80;74.50;;;;;;5146731;27;20018;-56
2022/12/25 02:02:44;;;;;;;17.73;7.63;;;27.80;74.40;;;;;;5146664;27;20094;-58
2022/12/25 02:05:32;;;;;;;19.08;8.05;;;27.80;74.30;;;;;;5146834;27;20039;-57
2022/12/25 02:08:06;;;;;;;18.85;6.63;;;27.80;74.60;;;;;;5146787;27;20023;-56
2022/12/25 02:10:33;;;;;;;16.02;7.20;;;27.80;74.30;;;;;;5146594;27;20345;-56
2022/12/25 02:13:01;;;;;;;13.27;5.82;;;27.80;73.90;;;;;;5146727;27;20049;-56
2022/12/25 02:15:41;;;;;;;13.85;5.93;;;27.70;73.70;;;;;;5146203;27;20027;-56
2022/12/25 02:18:11;;;;;;;12.95;5.88;;;27.70;73.60;;;;;;5146725;27;20034;-55
2022/12/25 02:20:41;;;;;;;12.95;5.20;;;27.70;73.50;;;;;;5145855;27;20254;-54
2022/12/25 02:23:22;;;;;;;15.93;5.97;;;27.70;73.30;;;;;;5146195;27;20364;-55
2022/12/25 02:26:15;;;;;;;15.15;4.72;;;27.70;73.20;;;;;;5145847;27;20023;-55
2022/12/25 02:29:09;;;;;;;16.33;4.95;;;27.70;73.00;;;;;;5146690;27;20077;-57
2022/12/25 02:31:51;;;;;;;13.95;5.97;;;27.70;72.80;;;;;;5108697;27;20035;-54
2022/12/25 02:34:34;;;;;;;17.33;6.45;;;27.70;72.60;;;;;;5146286;27;20095;-56
2022/12/25 02:37:16;;;;;;;11.70;6.30;;;27.70;72.70;;;;;;5146101;27;20295;-56
2022/12/25 02:39:58;;;;;;;15.75;6.65;;;27.70;72.70;;;;;;5146190;27;20056;-57
2022/12/25 03:08:10;;;;;;;13.77;4.55;;;27.60;71.60;;;;;;5146072;28;20042;-53
2022/12/25 03:13:31;;;;;;;15.15;4.30;;;27.60;71.00;;;;;;5146191;28;20290;-54
2022/12/25 03:18:42;;;;;;;14.95;4.47;;;27.60;70.90;;;;;;5146153;28;20033;-54
2022/12/25 03:26:54;;;;;;;12.60;3.60;;;27.50;70.30;;;;;;5145078;28;20091;-54
2022/12/25 03:32:40;;;;;;;10.75;3.63;;;27.50;70.50;;;;;;5145232;28;20297;-54
2022/12/25 03:35:21;;;;;;;11.15;3.47;;;27.50;70.00;;;;;;5148100;27;20050;-56
2022/12/25 04:37:56;;;;;;;16.95;4.90;;;27.20;68.30;;;;;;5128391;28;20038;-56
2022/12/25 04:40:23;;;;;;;21.50;5.88;;;27.20;68.40;;;;;;5108647;28;20215;-50
2022/12/25 04:42:50;;;;;;;26.13;5.57;;;27.20;68.50;;;;;;5117036;28;20024;-51
2022/12/25 04:45:17;;;;;;;25.40;5.47;;;27.20;68.80;;;;;;5109813;28;20039;-51
2022/12/25 04:47:49;;;;;;;27.27;5.30;;;27.10;68.70;;;;;;5100355;28;20032;-49
2022/12/25 04:50:16;;;;;;;26.70;5.18;;;27.20;68.90;;;;;;5090659;28;20393;-50
2022/12/25 04:52:43;;;;;;;21.63;5.70;;;27.10;68.90;;;;;;5088310;28;20216;-51
2022/12/25 04:55:10;;;;;;;15.70;5.57;;;27.10;69.20;;;;;;5112400;28;20044;-52
2022/12/25 04:57:37;;;;;;;23.02;5.45;;;27.10;69.30;;;;;;5120964;28;20027;-52
2022/12/25 05:00:06;;;;;;;25.23;6.07;;;27.00;69.40;;;;;;5126632;28;20023;-50
2022/12/25 05:02:32;;;;;;;19.98;5.80;;;27.10;69.30;;;;;;5121445;28;20032;-56
2022/12/25 05:04:59;;;;;;;19.30;6.03;;;27.00;69.10;;;;;;5101792;28;20088;-51
2022/12/25 05:07:25;;;;;;;20.25;5.80;;;27.00;69.10;;;;;;5098678;28;20027;-55
2022/12/25 05:09:52;;;;;;;21.75;6.35;;;27.00;69.00;;;;;;5096786;28;20224;-51
2022/12/25 05:12:19;;;;;;;19.33;6.30;;;27.00;68.80;;;;;;5111980;28;20093;-54
2022/12/25 05:14:45;;;;;;;16.42;5.45;;;27.00;68.50;;;;;;5103003;28;20032;-49
2022/12/25 05:17:12;;;;;;;14.57;5.30;;;27.00;68.70;;;;;;5095277;28;20021;-51
2022/12/25 05:19:39;;;;;;;10.45;4.70;;;27.00;68.40;;;;;;5095523;28;20035;-51
2022/12/25 05:22:05;;;;;;;21.75;5.15;;;27.00;68.30;;;;;;5093567;28;20036;-52
2022/12/25 05:24:32;;;;;;;17.83;5.18;;;27.00;68.30;;;;;;5091501;28;20012;-51
2022/12/25 05:26:58;;;;;;;18.90;5.03;;;27.00;68.30;;;;;;5085354;28;20086;-54
2022/12/25 05:29:25;;;;;;;15.30;5.10;;;26.90;68.30;;;;;;5085461;28;20209;-52
2022/12/25 05:31:51;;;;;;;16.58;4.90;;;26.90;68.30;;;;;;5087923;28;20055;-52
2022/12/25 05:34:18;;;;;;;20.55;4.70;;;26.90;68.20;;;;;;5094019;28;20025;-51
2022/12/25 05:36:44;;;;;;;20.83;4.70;;;26.90;67.90;;;;;;5085301;28;20059;-54
2022/12/25 05:39:11;;;;;;;14.05;4.10;;;26.90;67.80;;;;;;5085349;28;20259;-52
2022/12/25 05:41:38;;;;;;;12.85;3.83;;;26.90;67.50;;;;;;5088910;28;20012;-51
2022/12/25 05:44:04;;;;;;;11.15;3.95;;;26.90;67.40;;;;;;5095984;28;20033;-52
2022/12/25 05:46:31;;;;;;;10.88;4.13;;;26.90;67.20;;;;;;5096678;28;20020;-51
2022/12/25 05:48:57;;;;;;;13.35;3.88;;;26.90;67.10;;;;;;5094341;28;20032;-51
2022/12/25 05:51:24;;;;;;;12.93;3.70;;;26.90;67.00;;;;;;5084624;28;20056;-50
2022/12/25 05:53:51;;;;;;;9.35;3.75;;;26.90;66.70;;;;;;5085172;28;20205;-51
2022/12/25 05:56:18;;;;;;;12.48;4.05;;;26.80;66.60;;;;;;5084681;28;20032;-53
2022/12/25 05:58:44;;;;;;;18.52;3.80;;;26.80;66.70;;;;;;5096683;28;20232;-50
2022/12/25 06:01:14;;;;;;;15.02;3.95;;;26.80;66.70;;;;;;5096036;28;20096;-52
2022/12/25 06:03:40;;;;;;;13.90;4.15;;;26.80;66.80;;;;;;5085292;28;20209;-52
2022/12/25 06:06:07;;;;;;;14.82;4.03;;;26.80;66.80;;;;;;5084611;28;20269;-51
2022/12/25 06:08:34;;;;;;;10.65;3.63;;;26.80;66.80;;;;;;5084991;28;20096;-52
2022/12/25 06:11:05;;;;;;;14.05;3.72;;;26.80;66.60;;;;;;5095938;28;20016;-52
2022/12/25 06:13:33;;;;;;;9.60;3.77;;;26.80;66.50;;;;;;5084856;28;20212;-52
2022/12/25 06:16:02;;;;;;;8.85;3.45;;;26.80;66.40;;;;;;5084452;28;20029;-51
2022/12/25 06:18:29;;;;;;;11.52;3.65;;;26.80;66.40;;;;;;5084444;28;20051;-50
2022/12/25 06:20:55;;;;;;;16.75;4.15;;;26.80;66.20;;;;;;5089629;28;20383;-51
2022/12/25 06:23:22;;;;;;;34.67;5.25;;;26.80;66.00;;;;;;5090417;28;20036;-52
2022/12/25 06:25:48;;;;;;;24.30;4.18;;;26.80;66.10;;;;;;5092172;28;20016;-52
2022/12/25 06:28:15;;;;;;;21.38;4.18;;;26.70;65.90;;;;;;5096807;28;20099;-52
2022/12/25 06:30:44;;;;;;;18.13;3.63;;;26.70;66.00;;;;;;5095545;28;20035;-53
2022/12/25 06:33:11;;;;;;;12.38;4.03;;;26.70;66.00;;;;;;5098159;28;20027;-53
2022/12/25 06:35:39;;;;;;;15.05;4.53;;;26.70;66.00;;;;;;5085634;28;20012;-54
2022/12/25 06:38:05;;;;;;;13.48;4.22;;;26.70;66.10;;;;;;5084422;28;20028;-54
2022/12/25 06:40:32;;;;;;;18.02;3.80;;;26.70;66.10;;;;;;5066163;28;20313;-53
2022/12/25 06:42:59;;;;;;;13.48;4.03;;;26.70;66.10;;;;;;5084074;28;20025;-51
2022/12/25 06:45:25;;;;;;;13.88;3.53;;;26.60;66.20;;;;;;5084532;28;20034;-58
2022/12/25 06:47:52;;;;;;;13.88;4.07;;;26.60;66.20;;;;;;5094834;28;20031;-52
2022/12/25 06:50:18;;;;;;;11.10;3.30;;;26.60;66.40;;;;;;5095125;28;20048;-53
2022/12/25 06:52:45;;;;;;;14.63;3.05;;;26.60;66.40;;;;;;5104590;28;20297;-52
2022/12/25 06:55:11;;;;;;;10.40;3.63;;;26.60;66.30;;;;;;5104191;28;20043;-53
2022/12/25 06:57:38;;;;;;;13.02;3.35;;;26.60;66.20;;;;;;5101683;28;20031;-52
2022/12/25 07:00:05;;;;;;;13.68;3.70;;;26.60;66.10;;;;;;5093062;28;20026;-53
2022/12/25 07:02:34;;;;;;;20.13;3.88;;;26.50;65.90;;;;;;5094847;28;20082;-50
2022/12/25 07:05:02;;;;;;;13.05;3.28;;;26.50;66.00;;;;;;5092283;28;20052;-55
2022/12/25 07:07:28;;;;;;;14.68;3.15;;;26.50;66.00;;;;;;5093048;28;20054;-56
2022/12/25 07:09:55;;;;;;;15.02;3.50;;;26.50;65.90;;;;;;5092732;28;20058;-53
2022/12/25 07:12:24;;;;;;;12.10;3.08;;;26.50;65.90;;;;;;5091274;28;20027;-53
2022/12/25 07:14:54;;;;;;;12.55;3.60;;;26.50;65.90;;;;;;5095995;28;20016;-52
2022/12/25 07:17:21;;;;;;;11.48;3.13;;;26.40;65.90;;;;;;5093895;28;20095;-52
2022/12/25 07:19:48;;;;;;;10.65;3.47;;;26.40;66.00;;;;;;5083645;28;20017;-49
2022/12/25 07:22:15;;;;;;;12.63;3.20;;;26.40;65.80;;;;;;5083727;28;20040;-51
2022/12/25 07:24:42;;;;;;;12.25;3.38;;;26.40;65.80;;;;;;5083769;28;20254;-51
2022/12/25 07:27:09;;;;;;;11.52;3.40;;;26.40;65.70;;;;;;5088538;28;20055;-54
2022/12/25 07:29:36;;;;;;;13.27;3.47;;;26.40;65.80;;;;;;5091218;28;20036;-51
2022/12/25 07:32:02;;;;;;;9.82;3.25;;;26.40;65.70;;;;;;5095668;28;20028;-51
2022/12/25 07:34:29;;;;;;;14.73;4.10;;;26.30;65.70;;;;;;5085012;28;20048;-51
2022/12/25 07:36:55;;;;;;;16.05;4.70;;;26.30;65.80;;;;;;5083501;28;20037;-51
2022/12/25 07:39:22;;;;;;;12.50;6.07;;;26.30;65.90;;;;;;5083624;28;20028;-51
2022/12/25 07:41:49;;;;;;;19.60;5.07;;;26.30;66.00;;;;;;5091592;28;20088;-51
2022/12/25 07:44:15;;;;;;;12.73;4.22;;;26.30;66.10;;;;;;5088613;28;20024;-52
2022/12/25 07:46:42;;;;;;;14.38;3.95;;;26.30;66.10;;;;;;5092008;28;20058;-52
2022/12/25 07:49:10;;;;;;;15.38;4.05;;;26.30;66.20;;;;;;5100580;28;20020;-50
2022/12/25 07:51:36;;;;;;;17.55;4.20;;;26.30;66.40;;;;;;5085499;28;20252;-52
2022/12/25 07:54:03;;;;;;;16.65;3.70;;;26.30;66.60;;;;;;5103605;28;20052;-50
2022/12/25 07:56:29;;;;;;;11.05;3.50;;;26.20;66.70;;;;;;5094940;28;20138;-49
2022/12/25 07:58:56;;;;;;;44.40;4.47;;;26.20;66.90;;;;;;5093657;28;20316;-50
2022/12/25 08:01:25;;;;;;;14.32;3.22;;;26.20;67.00;;;;;;5105032;28;20098;-50
2022/12/25 08:03:56;;;;;;;17.35;3.55;;;26.20;67.00;;;;;;5108791;28;20036;-51
2022/12/25 08:06:28;;;;;;;8.53;3.83;;;26.20;67.00;;;;;;5099782;28;20028;-53
2022/12/25 08:09:09;;;;;;;11.65;3.50;;;26.20;67.00;;;;;;5104266;28;20396;-52
2022/12/25 08:11:36;;;;;;;8.13;3.00;;;26.10;66.90;;;;;;5103569;28;20324;-53
2022/12/25 08:14:07;;;;;;;9.15;3.05;;;26.10;67.00;;;;;;5103349;28;20050;-51
2022/12/25 08:16:38;;;;;;;7.40;3.22;;;26.10;67.00;;;;;;5103383;28;20024;-52
2022/12/25 08:19:04;;;;;;;8.52;3.13;;;26.10;67.10;;;;;;5117499;28;20031;-53
2022/12/25 08:21:31;;;;;;;9.23;3.28;;;26.10;67.00;;;;;;5098456;28;20091;-52
2022/12/25 08:23:58;;;;;;;11.15;3.20;;;26.10;67.00;;;;;;5107204;28;20035;-52
2022/12/25 08:26:24;;;;;;;7.95;3.08;;;26.10;66.90;;;;;;5106903;28;20016;-55
2022/12/25 08:28:51;;;;;;;15.05;3.45;;;26.00;66.90;;;;;;5107271;28;20035;-52
2022/12/25 08:31:26;;;;;;;16.30;3.47;;;26.00;66.90;;;;;;5117449;28;20019;-51
2022/12/25 08:33:55;;;;;;;17.67;3.55;;;26.00;66.90;;;;;;5106971;28;20331;-53
2022/12/25 08:36:23;;;;;;;11.80;3.63;;;26.00;67.20;;;;;;5106719;28;20163;-49
2022/12/25 08:38:50;;;;;;;14.60;3.80;;;26.00;67.50;;;;;;5106849;28;20043;-51
2022/12/25 08:41:17;;;;;;;11.60;3.95;;;26.00;67.70;;;;;;5106592;28;20066;-49
2022/12/25 08:43:43;;;;;;;13.10;3.72;;;26.00;67.90;;;;;;5106938;28;20043;-52
2022/12/25 08:46:10;;;;;;;9.20;3.42;;;26.00;68.20;;;;;;5106631;28;20036;-52
2022/12/25 08:48:37;;;;;;;19.23;3.45;;;25.90;68.20;;;;;;5106788;28;20027;-52
2022/12/25 08:51:07;;;;;;;10.75;3.65;;;26.00;68.20;;;;;;5106204;28;20120;-52
2022/12/25 08:53:33;;;;;;;9.95;3.05;;;25.90;68.10;;;;;;5106323;28;20292;-51
2022/12/25 08:56:05;;;;;;;14.57;3.50;;;25.90;68.20;;;;;;5105937;28;20051;-51
2022/12/25 08:58:32;;;;;;;9.48;3.50;;;25.90;68.30;;;;;;5106593;28;20036;-51
2022/12/25 09:00:59;;;;;;;8.32;3.70;;;25.90;68.40;;;;;;5106316;28;20008;-51
2022/12/25 09:03:26;;;;;;;10.50;3.50;;;25.90;68.40;;;;;;5106547;28;20047;-51
2022/12/25 09:05:53;;;;;;;17.88;3.70;;;25.90;68.40;;;;;;5106000;28;20020;-56
2022/12/25 09:08:20;;;;;;;8.63;3.00;;;25.90;68.20;;;;;;5108764;28;20032;-51
2022/12/25 09:10:48;;;;;;;15.05;3.20;;;25.90;68.10;;;;;;5105740;28;20028;-52
2022/12/25 09:13:15;;;;;;;5.13;3.00;;;25.90;67.80;;;;;;5105699;28;20039;-51
2022/12/25 09:15:41;;;;;;;9.98;3.70;;;25.90;67.70;;;;;;5106176;28;20091;-51
2022/12/25 09:18:08;;;;;;;9.43;3.28;;;25.90;67.30;;;;;;5106186;28;20316;-52
2022/12/25 09:20:34;;;;;;;11.88;2.88;;;25.80;67.10;;;;;;5105903;28;20016;-52
2022/12/25 09:23:01;;;;;;;9.90;2.85;;;25.90;67.20;;;;;;5097875;28;20039;-49
2022/12/25 09:25:27;;;;;;;9.15;2.90;;;25.80;66.60;;;;;;5098884;28;20009;-50
2022/12/25 09:27:56;;;;;;;13.23;2.90;;;25.90;66.50;;;;;;5086261;28;20024;-51
2022/12/25 09:30:22;;;;;;;9.98;3.08;;;25.80;66.00;;;;;;5085259;28;20066;-49
2022/12/25 09:32:49;;;;;;;6.65;2.60;;;25.80;65.70;;;;;;5091271;28;20020;-50
2022/12/25 09:35:17;;;;;;;8.88;2.60;;;25.80;65.70;;;;;;5098635;28;20074;-51
2022/12/25 09:37:44;;;;;;;3.92;2.17;;;25.80;65.70;;;;;;5085530;28;20039;-50
2022/12/25 09:40:19;;;;;;;9.30;2.50;;;25.80;65.60;;;;;;5091827;28;20036;-51
2022/12/25 09:42:47;;;;;;;9.27;2.60;;;25.80;65.40;;;;;;5102892;28;20030;-52
2022/12/25 09:45:24;;;;;;;4.40;2.30;;;25.80;65.10;;;;;;5093891;28;20036;-52
2022/12/25 09:47:53;;;;;;;3.58;2.10;;;25.80;64.80;;;;;;5105091;28;20032;-51
2022/12/25 09:50:33;;;;;;;4.80;2.38;;;25.80;64.50;;;;;;5097145;28;20102;-52
2022/12/25 09:53:03;;;;;;;5.25;2.30;;;25.80;64.20;;;;;;5085086;28;20032;-51
2022/12/25 09:55:32;;;;;;;5.50;2.30;;;25.80;64.20;;;;;;5104195;28;20028;-53
2022/12/25 09:58:08;;;;;;;6.05;2.53;;;25.90;64.10;;;;;;5105452;28;20020;-52
2022/12/25 10:00:40;;;;;;;5.47;2.20;;;25.90;63.20;;;;;;5092702;28;20027;-50
2022/12/25 10:03:09;;;;;;;;;;;25.90;63.30;;;;;;5078129;28;20032;-52
2022/12/25 10:06:09;;;;;;;10.18;2.20;;;25.90;63.20;;;;;;5084824;28;19904;-52
2022/12/25 10:08:37;;;;;;;4.72;2.10;;;25.80;63.30;;;;;;5092630;28;20208;-53
2022/12/25 10:11:25;;;;;;;4.45;2.22;;;25.80;63.40;;;;;;5085315;28;20078;-52
2022/12/25 10:14:04;;;;;;;11.05;3.25;;;25.80;63.60;;;;;;5084980;28;20212;-52
2022/12/25 10:16:57;;;;;;;6.00;2.75;;;25.80;64.00;;;;;;5066369;28;20062;-51
2022/12/25 10:19:48;;;;;;;9.23;2.65;;;25.70;64.30;;;;;;5084504;28;20016;-50
2022/12/25 10:22:26;;;;;;;8.20;2.60;;;25.70;64.60;;;;;;5084439;28;20198;-53
2022/12/25 10:24:57;;;;;;;6.38;2.33;;;25.70;64.70;;;;;;5084141;28;20020;-52
2022/12/25 10:27:41;;;;;;;7.65;2.42;;;25.70;64.70;;;;;;5084776;28;20025;-52
2022/12/25 10:30:24;;;;;;;7.28;2.60;;;25.70;64.50;;;;;;5084176;28;20205;-53
2022/12/25 10:32:51;;;;;;;9.00;2.55;;;25.70;64.20;;;;;;5084400;28;20096;-52
2022/12/25 10:35:21;;;;;;;8.13;2.70;;;25.80;63.90;;;;;;5084124;28;20025;-49
2022/12/25 10:38:10;;;;;;;5.20;2.53;;;25.70;63.50;;;;;;5084543;28;20036;-51
2022/12/25 10:40:43;;;;;;;19.40;3.22;;;25.70;63.50;;;;;;5084043;28;20009;-54
2022/12/25 10:43:36;;;;;;;9.52;2.67;;;25.70;63.80;;;;;;5090963;28;20089;-49
2022/12/25 10:46:10;;;;;;;9.27;2.70;;;25.70;63.90;;;;;;5070108;28;20046;-52
2022/12/25 10:48:42;;;;;;;5.05;2.15;;;25.70;64.20;;;;;;5088560;28;20073;-51
2022/12/25 10:51:08;;;;;;;;;;;25.70;64.40;;;;;;5091521;28;20110;-50
2022/12/25 10:53:41;;;;;;;8.40;2.65;;;25.60;64.70;;;;;;5088952;28;20219;-52
2022/12/25 10:56:16;;;;;;;6.45;2.00;;;25.60;64.90;;;;;;5104319;28;20024;-51
2022/12/25 10:58:43;;;;;;;5.10;2.35;;;25.60;65.10;;;;;;5103899;28;20020;-53
2022/12/25 11:01:10;;;;;;;11.02;3.08;;;25.60;65.30;;;;;;5098241;28;20024;-50
2022/12/25 11:03:39;;;;;;;10.23;2.80;;;25.50;65.70;;;;;;5091724;28;20023;-51
2022/12/25 11:06:22;;;;;;;10.10;3.05;;;25.60;65.70;;;;;;5092316;28;20366;-52
2022/12/25 11:08:58;;;;;;;10.48;3.03;;;25.60;65.80;;;;;;5085026;28;20052;-56
2022/12/25 11:11:26;;;;;;;7.45;2.60;;;25.60;66.10;;;;;;5101800;28;20032;-53
2022/12/25 11:13:56;;;;;;;9.25;2.90;;;25.60;66.30;;;;;;5104380;28;20032;-52
2022/12/25 11:16:27;;;;;;;9.13;2.80;;;25.60;66.50;;;;;;5104086;28;20069;-55
2022/12/25 11:18:55;;;;;;;9.35;2.70;;;25.60;66.70;;;;;;5103733;28;20034;-52
2022/12/25 11:21:33;;;;;;;10.90;2.53;;;25.60;66.80;;;;;;5079538;28;20039;-59
2022/12/25 11:24:05;;;;;;;7.53;2.53;;;25.60;66.80;;;;;;5084641;28;20099;-51
2022/12/25 11:26:45;;;;;;;6.03;2.70;;;25.60;66.90;;;;;;5083710;28;20040;-51
2022/12/25 11:29:52;;;;;;;5.72;2.50;;;25.60;67.00;;;;;;5099854;28;20099;-52
2022/12/25 11:32:33;;;;;;;8.43;2.63;;;25.60;67.40;;;;;;5069671;28;20039;-52
2022/12/25 11:35:01;;;;;;;12.38;2.90;;;25.60;67.60;;;;;;5073777;28;20239;-51
2022/12/25 11:37:40;;;;;;;9.38;2.70;;;25.60;67.80;;;;;;5083660;28;20024;-51
2022/12/25 11:40:33;;;;;;;8.90;2.60;;;25.60;68.10;;;;;;5095457;28;20250;-52
2022/12/25 11:43:03;;;;;;;;;;;25.60;68.20;;;;;;5101146;28;20059;-54
2022/12/25 11:45:37;;;;;;;8.23;2.88;;;25.50;68.20;;;;;;5101774;28;19904;-52
2022/12/25 11:48:20;;;;;;;11.18;2.85;;;25.60;68.40;;;;;;5093955;28;20356;-52
2022/12/25 11:50:52;;;;;;;12.02;2.97;;;25.60;68.30;;;;;;5094317;28;20051;-50
2022/12/25 11:53:54;;;;;;;11.40;3.10;;;25.60;68.20;;;;;;5103877;28;20292;-52
2022/12/25 11:56:24;;;;;;;10.32;3.95;;;25.70;68.20;;;;;;5107194;28;20036;-49
2022/12/25 11:58:54;;;;;;;12.48;4.75;;;25.70;68.10;;;;;;5107811;28;20055;-53
2022/12/25 12:01:58;;;;;;;16.80;6.72;;;25.70;68.50;;;;;;5093205;28;20025;-52
2022/12/25 12:04:33;;;;;;;26.42;10.88;;;25.70;69.00;;;;;;5076401;28;20237;-58
2022/12/25 12:07:28;;;;;;;35.50;16.20;;;25.70;69.00;;;;;;5069030;28;20231;-54
2022/12/25 12:10:08;;;;;;;34.67;15.10;;;25.40;69.90;;;;;;5084958;28;20039;-54
2022/12/25 12:13:03;;;;;;;31.55;12.50;;;25.20;70.30;;;;;;5090051;28;20036;-51
2022/12/25 12:15:35;;;;;;;116.82;17.70;;;25.10;70.40;;;;;;5069681;28;20028;-52
2022/12/25 12:18:21;;;;;;;83.65;14.48;;;25.20;70.70;;;;;;5089930;28;20028;-54
2022/12/25 12:21:05;;;;;;;61.88;11.98;;;25.30;70.40;;;;;;5098028;28;20050;-56
2022/12/25 12:23:35;;;;;;;59.78;11.70;;;25.40;70.10;;;;;;5106283;28;20078;-51
2022/12/25 12:26:03;;;;;;;54.95;10.63;;;25.50;69.80;;;;;;5106905;28;20377;-51
2022/12/25 12:28:43;;;;;;;32.72;8.15;;;25.60;69.70;;;;;;5107727;28;20027;-52
2022/12/25 12:31:10;;;;;;;35.60;7.68;;;25.60;69.40;;;;;;5103297;28;20020;-52
2022/12/25 12:33:57;;;;;;;26.63;6.30;;;25.70;69.30;;;;;;5089164;28;20028;-51
2022/12/25 12:36:26;;;;;;;30.30;6.75;;;25.80;69.10;;;;;;5104463;28;20052;-55
2022/12/25 12:38:55;;;;;;;22.10;6.47;;;25.80;68.90;;;;;;5105352;28;20315;-50
2022/12/25 12:41:25;;;;;;;21.33;5.30;;;25.90;68.80;;;;;;5104974;28;20027;-52
2022/12/25 12:43:58;;;;;;;19.77;5.13;;;25.90;68.60;;;;;;5099524;28;20216;-52
2022/12/25 12:46:27;;;;;;;16.77;5.78;;;26.00;68.60;;;;;;5106142;28;20023;-52
2022/12/25 12:49:29;;;;;;;19.27;5.63;;;26.00;68.50;;;;;;5098154;28;20036;-53
2022/12/25 12:52:20;;;;;;;21.27;5.57;;;26.00;68.40;;;;;;5075681;28;20071;-51
2022/12/25 12:55:13;;;;;;;17.45;6.05;;;26.10;68.40;;;;;;5096972;28;20028;-51
2022/12/25 12:57:41;;;;;;;21.48;5.40;;;26.20;68.50;;;;;;5095624;28;20055;-54
2022/12/25 13:00:18;;;;;;;21.02;4.90;;;26.20;68.50;;;;;;5097427;28;20020;-61
2022/12/25 13:02:57;;;;;;;13.43;5.28;;;26.30;68.50;;;;;;5088779;28;20066;-60
2022/12/25 13:05:42;;;;;;;14.02;4.50;;;26.30;68.50;;;;;;5089591;28;20016;-49
2022/12/25 13:08:19;;;;;;;11.73;4.22;;;26.30;68.70;;;;;;5086034;28;20044;-51
2022/12/25 13:10:49;;;;;;;12.38;4.32;;;26.40;69.00;;;;;;5087519;28;20024;-57
2022/12/25 13:13:26;;;;;;;13.63;4.65;;;26.50;69.20;;;;;;5106194;28;20042;-49
2022/12/25 13:15:54;;;;;;;14.27;3.90;;;26.50;69.30;;;;;;5092033;28;20047;-52
2022/12/25 13:18:21;;;;;;;13.57;3.70;;;26.50;69.50;;;;;;5085928;28;20252;-51
2022/12/25 13:20:55;;;;;;;6.95;3.47;;;26.60;69.50;;;;;;5087118;28;20017;-52
2022/12/25 13:23:29;;;;;;;8.55;3.92;;;26.60;69.40;;;;;;5106412;28;20105;-52
2022/12/25 13:26:00;;;;;;;12.18;3.90;;;26.60;69.40;;;;;;5106895;28;20023;-52
2022/12/25 13:28:36;;;;;;;9.30;3.60;;;26.70;69.40;;;;;;5106362;28;20032;-53
2022/12/25 13:31:13;;;;;;;11.95;3.20;;;26.70;69.30;;;;;;5105707;28;20020;-52
2022/12/25 13:33:52;;;;;;;6.30;3.60;;;26.70;69.20;;;;;;5106269;28;20040;-52
2022/12/25 13:36:21;;;;;;;13.25;3.70;;;26.80;69.20;;;;;;5105370;28;20282;-51
2022/12/25 13:38:50;;;;;;;6.70;3.10;;;26.80;69.10;;;;;;5106176;28;20074;-52
2022/12/25 13:44:34;;;;;;;6.68;2.95;;;26.90;69.20;;;;;;5105506;28;20039;-52
2022/12/25 13:47:38;;;;;;;5.35;2.83;;;26.90;69.30;;;;;;5100964;28;20047;-54
2022/12/25 13:50:23;;;;;;;8.20;2.97;;;26.90;69.40;;;;;;5104913;28;20105;-54
2022/12/25 13:52:50;;;;;;;8.75;3.45;;;27.00;69.40;;;;;;5105721;28;20024;-53
2022/12/25 13:55:25;;;;;;;6.40;3.33;;;27.00;69.50;;;;;;5087242;28;20279;-57
2022/12/25 13:58:00;;;;;;;7.40;3.20;;;27.00;69.50;;;;;;5105353;28;20024;-52
2022/12/25 14:00:46;;;;;;;8.20;3.30;;;27.00;69.50;;;;;;5105085;28;20093;-57
2022/12/25 14:03:40;;;;;;;7.47;3.08;;;27.10;69.70;;;;;;5084730;28;20095;-61
2022/12/25 14:06:25;;;;;;;8.70;3.38;;;27.10;69.50;;;;;;5066865;28;20039;-51
2022/12/25 14:08:57;;;;;;;7.60;3.20;;;27.10;69.40;;;;;;5085096;28;20021;-51
2022/12/25 14:11:28;;;;;;;8.13;3.17;;;27.20;69.50;;;;;;5084628;28;20028;-52
2022/12/25 14:14:03;;;;;;;10.65;3.47;;;27.20;69.40;;;;;;5096174;28;20028;-53
2022/12/25 14:16:29;;;;;;;7.00;3.08;;;27.20;69.40;;;;;;5086774;28;20073;-54
2022/12/25 14:18:58;;;;;;;7.05;3.08;;;27.20;69.30;;;;;;5104297;28;20020;-52
2022/12/25 14:21:39;;;;;;;8.15;3.33;;;27.30;69.30;;;;;;5105321;28;20016;-50
2022/12/25 14:24:14;;;;;;;7.03;3.08;;;27.30;69.30;;;;;;5104618;28;20035;-51
2022/12/25 14:26:40;;;;;;;6.43;3.08;;;27.30;69.30;;;;;;5104780;28;20039;-52
2022/12/25 14:29:16;;;;;;;10.88;3.17;;;27.40;69.40;;;;;;5104300;28;20065;-52
2022/12/25 14:31:45;;;;;;;8.27;3.33;;;27.40;69.50;;;;;;5111499;28;20023;-51
2022/12/25 14:34:16;;;;;;;10.18;3.20;;;27.40;69.60;;;;;;5107161;28;20036;-51
2022/12/25 14:36:42;;;;;;;11.15;3.33;;;27.40;69.60;;;;;;5102154;28;20028;-52
2022/12/25 14:39:36;;;;;;;9.02;3.08;;;27.50;69.60;;;;;;5099246;28;20186;-53
2022/12/25 14:42:30;;;;;;;16.35;4.07;;;27.50;69.60;;;;;;5081731;28;20248;-52
2022/12/25 14:45:23;;;;;;;8.85;3.40;;;27.50;69.40;;;;;;5099766;28;20106;-52